Saint-Stanislas, Canada
Current Conditions -  °F | °C
As of 10:00 AM on Wednesday 22 Oct 2014 (Local Time) from CYRJ Reporting Station
Broken Clouds Broken Clouds  
Wind Chill: -1°   Ceiling: 3000
Heat Index:   Visibility: 40mi
Dew Point:   Wind: 6mph
Humidity: 87%   Direction: 310°NW
Pressure: 30.48"   Gusts: NA
Location:  49°N, 72.17°W
Report Text: CYRJ 221400Z 31005KT 40SM BKN030 02/M00 A3048 RMK SC6 SLP331
Loading
Personal Weather Stations






























Interactive Weather Map
Tropical Storm Tracking
New forecast layout! Learn more

10-Day Weather Forecast

Advertisements
Track Severe Weather on mobile